sensor_id;sensor_type;location;lat;lon;timestamp;P1;durP1;ratioP1;P2;durP2;ratioP2
6926;SDS011;3503;50.076;8.868;2022-07-21T00:06:54;30.20;;;21.53;;
6926;SDS011;3503;50.076;8.868;2022-07-21T00:21:57;33.40;;;23.20;;
6926;SDS011;3503;50.076;8.868;2022-07-21T00:37:00;28.73;;;23.13;;
6926;SDS011;3503;50.076;8.868;2022-07-21T00:52:03;28.90;;;22.10;;
6926;SDS011;3503;50.076;8.868;2022-07-21T01:07:06;32.93;;;23.27;;
6926;SDS011;3503;50.076;8.868;2022-07-21T01:22:10;26.83;;;17.80;;
6926;SDS011;3503;50.076;8.868;2022-07-21T01:37:14;32.57;;;21.43;;
6926;SDS011;3503;50.076;8.868;2022-07-21T01:52:17;26.90;;;22.60;;
6926;SDS011;3503;50.076;8.868;2022-07-21T02:07:20;35.60;;;21.23;;
6926;SDS011;3503;50.076;8.868;2022-07-21T02:22:23;29.27;;;21.60;;
6926;SDS011;3503;50.076;8.868;2022-07-21T02:37:26;27.03;;;22.07;;
6926;SDS011;3503;50.076;8.868;2022-07-21T02:52:29;30.70;;;22.07;;
6926;SDS011;3503;50.076;8.868;2022-07-21T03:07:32;27.60;;;21.50;;
6926;SDS011;3503;50.076;8.868;2022-07-21T03:22:35;20.30;;;11.87;;
6926;SDS011;3503;50.076;8.868;2022-07-21T03:37:41;34.57;;;11.40;;
6926;SDS011;3503;50.076;8.868;2022-07-21T03:52:45;13.40;;;10.30;;
6926;SDS011;3503;50.076;8.868;2022-07-21T04:07:49;15.17;;;10.60;;
6926;SDS011;3503;50.076;8.868;2022-07-21T04:22:52;14.93;;;9.90;;
6926;SDS011;3503;50.076;8.868;2022-07-21T04:37:56;11.23;;;9.90;;
6926;SDS011;3503;50.076;8.868;2022-07-21T04:52:59;14.00;;;10.70;;
6926;SDS011;3503;50.076;8.868;2022-07-21T05:08:01;13.67;;;10.40;;
6926;SDS011;3503;50.076;8.868;2022-07-21T05:23:04;12.63;;;9.23;;
6926;SDS011;3503;50.076;8.868;2022-07-21T05:38:09;17.17;;;9.40;;
6926;SDS011;3503;50.076;8.868;2022-07-21T05:53:12;11.83;;;9.60;;
6926;SDS011;3503;50.076;8.868;2022-07-21T06:08:15;11.67;;;7.87;;
6926;SDS011;3503;50.076;8.868;2022-07-21T06:23:18;8.90;;;7.83;;
6926;SDS011;3503;50.076;8.868;2022-07-21T06:38:21;9.17;;;7.10;;
6926;SDS011;3503;50.076;8.868;2022-07-21T06:53:24;10.40;;;8.00;;
6926;SDS011;3503;50.076;8.868;2022-07-21T07:08:27;10.10;;;6.70;;
6926;SDS011;3503;50.076;8.868;2022-07-21T07:23:30;10.23;;;7.53;;
6926;SDS011;3503;50.076;8.868;2022-07-21T07:38:33;12.00;;;6.03;;
6926;SDS011;3503;50.076;8.868;2022-07-21T07:53:36;12.17;;;7.60;;
6926;SDS011;3503;50.076;8.868;2022-07-21T08:08:39;12.67;;;7.30;;
6926;SDS011;3503;50.076;8.868;2022-07-21T08:23:42;8.50;;;6.03;;
6926;SDS011;3503;50.076;8.868;2022-07-21T08:38:45;6.40;;;5.10;;
6926;SDS011;3503;50.076;8.868;2022-07-21T08:53:48;7.77;;;5.30;;
6926;SDS011;3503;50.076;8.868;2022-07-21T09:08:52;6.50;;;4.80;;
6926;SDS011;3503;50.076;8.868;2022-07-21T09:23:59;5.60;;;4.93;;
6926;SDS011;3503;50.076;8.868;2022-07-21T09:39:13;8.23;;;5.33;;
6926;SDS011;3503;50.076;8.868;2022-07-21T09:54:16;8.00;;;4.83;;
6926;SDS011;3503;50.076;8.868;2022-07-21T10:09:19;5.23;;;4.73;;
6926;SDS011;3503;50.076;8.868;2022-07-21T10:24:23;7.07;;;3.90;;
6926;SDS011;3503;50.076;8.868;2022-07-21T10:39:30;5.43;;;3.73;;
6926;SDS011;3503;50.076;8.868;2022-07-21T10:54:34;6.60;;;3.90;;
6926;SDS011;3503;50.076;8.868;2022-07-21T11:09:37;9.83;;;4.07;;
6926;SDS011;3503;50.076;8.868;2022-07-21T11:24:41;8.07;;;4.90;;
6926;SDS011;3503;50.076;8.868;2022-07-21T11:39:45;6.30;;;5.10;;
6926;SDS011;3503;50.076;8.868;2022-07-21T11:54:49;6.47;;;3.80;;
6926;SDS011;3503;50.076;8.868;2022-07-21T12:09:53;3.80;;;3.40;;
6926;SDS011;3503;50.076;8.868;2022-07-21T12:24:58;5.90;;;3.33;;
6926;SDS011;3503;50.076;8.868;2022-07-21T12:40:01;4.53;;;3.07;;
6926;SDS011;3503;50.076;8.868;2022-07-21T12:55:06;3.20;;;2.17;;
6926;SDS011;3503;50.076;8.868;2022-07-21T13:10:09;6.57;;;3.83;;
6926;SDS011;3503;50.076;8.868;2022-07-21T13:25:13;6.90;;;5.10;;
6926;SDS011;3503;50.076;8.868;2022-07-21T13:40:16;8.80;;;5.20;;
6926;SDS011;3503;50.076;8.868;2022-07-21T13:55:19;10.13;;;5.60;;
6926;SDS011;3503;50.076;8.868;2022-07-21T14:10:22;8.60;;;7.03;;
6926;SDS011;3503;50.076;8.868;2022-07-21T14:25:25;8.27;;;6.60;;
6926;SDS011;3503;50.076;8.868;2022-07-21T14:40:28;8.07;;;5.30;;
6926;SDS011;3503;50.076;8.868;2022-07-21T14:55:31;7.43;;;6.20;;
6926;SDS011;3503;50.076;8.868;2022-07-21T15:10:34;6.70;;;5.17;;
6926;SDS011;3503;50.076;8.868;2022-07-21T15:25:37;8.50;;;5.43;;
6926;SDS011;3503;50.076;8.868;2022-07-21T15:40:39;7.17;;;5.40;;
6926;SDS011;3503;50.076;8.868;2022-07-21T15:55:43;10.43;;;6.10;;
6926;SDS011;3503;50.076;8.868;2022-07-21T16:10:46;8.43;;;5.70;;
6926;SDS011;3503;50.076;8.868;2022-07-21T16:25:49;5.57;;;4.70;;
6926;SDS011;3503;50.076;8.868;2022-07-21T16:40:51;10.63;;;5.53;;
6926;SDS011;3503;50.076;8.868;2022-07-21T16:55:54;6.63;;;4.90;;
6926;SDS011;3503;50.076;8.868;2022-07-21T17:10:57;8.93;;;5.50;;
6926;SDS011;3503;50.076;8.868;2022-07-21T17:26:00;10.77;;;6.10;;
6926;SDS011;3503;50.076;8.868;2022-07-21T17:41:03;7.27;;;5.67;;
6926;SDS011;3503;50.076;8.868;2022-07-21T17:56:06;8.90;;;5.90;;
6926;SDS011;3503;50.076;8.868;2022-07-21T18:11:09;8.57;;;5.83;;
6926;SDS011;3503;50.076;8.868;2022-07-21T18:26:12;9.23;;;7.00;;
6926;SDS011;3503;50.076;8.868;2022-07-21T18:41:15;8.90;;;6.00;;
6926;SDS011;3503;50.076;8.868;2022-07-21T18:56:18;11.97;;;5.47;;
6926;SDS011;3503;50.076;8.868;2022-07-21T19:11:21;9.37;;;6.30;;
6926;SDS011;3503;50.076;8.868;2022-07-21T19:26:24;6.40;;;5.40;;
6926;SDS011;3503;50.076;8.868;2022-07-21T19:41:27;13.10;;;6.30;;
6926;SDS011;3503;50.076;8.868;2022-07-21T19:56:30;14.90;;;8.47;;
6926;SDS011;3503;50.076;8.868;2022-07-21T20:11:33;11.13;;;7.80;;
6926;SDS011;3503;50.076;8.868;2022-07-21T20:26:36;9.60;;;7.83;;
6926;SDS011;3503;50.076;8.868;2022-07-21T20:41:39;10.87;;;7.93;;
6926;SDS011;3503;50.076;8.868;2022-07-21T20:56:43;9.43;;;7.13;;
6926;SDS011;3503;50.076;8.868;2022-07-21T21:11:46;8.63;;;6.43;;
6926;SDS011;3503;50.076;8.868;2022-07-21T21:26:48;11.00;;;6.60;;
6926;SDS011;3503;50.076;8.868;2022-07-21T21:41:51;10.43;;;7.30;;
6926;SDS011;3503;50.076;8.868;2022-07-21T21:56:54;9.83;;;6.60;;
6926;SDS011;3503;50.076;8.868;2022-07-21T22:11:57;10.10;;;6.47;;
6926;SDS011;3503;50.076;8.868;2022-07-21T22:27:00;8.70;;;7.13;;
6926;SDS011;3503;50.076;8.868;2022-07-21T22:42:03;9.63;;;7.40;;
6926;SDS011;3503;50.076;8.868;2022-07-21T22:57:06;9.20;;;7.10;;
6926;SDS011;3503;50.076;8.868;2022-07-21T23:12:09;10.67;;;7.80;;
6926;SDS011;3503;50.076;8.868;2022-07-21T23:27:12;13.17;;;7.73;;
6926;SDS011;3503;50.076;8.868;2022-07-21T23:42:15;9.70;;;7.90;;
6926;SDS011;3503;50.076;8.868;2022-07-21T23:57:18;13.27;;;8.67;;
